Tiempo atmosférico en la estación meteorológica de Chelva, València/Valencia (546 m.)



Fecha
DESCASC
Temp. máxima en grados centígrados (hora)
DESCASC
Temp. mínima en grados centígrados (hora)
DESCASC
Temp. media en grados centígrados
DESCASC
Racha de viento máxima en m/sg (hora)
DESCASC
Velocidad máxima media en intervalos de 10 minutos(hora)
DESCASC
Precipitaciones diarias en mm
DESCASC
Precipitaciones de 00:00 a 06:00 en mm
DESCASC
Precipitaciones de 06:00 a 12:00 en mm
DESCASC
Precipitaciones de 12:00 a 18:00 en mm
DESCASC
Precipitaciones de 18:00 a 24:00 en mm
DESCASC
29-10-2020 25 (16:10) 8.5 (06:50) 16.8 5 (17:30) 2.78 (17:30) 0 0 0 0 0
28-10-2020 25.1 (15:20) 9.2 (07:50) 17.2 7.22 (16:00) 3.89 (00:30) 0 0 0 0 0
27-10-2020 20 (15:00) 7.3 (00:00) 13.7 10.28 (16:00) 5.56 (16:10) 0 0 0 0 0
26-10-2020 17.5 (15:20) 8.8 (00:00) 13.2 13.61 (12:30) 6.94 (10:10) 0.4 0.4 0 0 0
25-10-2020 19.9 (14:40) 11.4 (00:00) 15.6 13.61 (09:50) 8.06 (10:10) 0.2 0 0 0 0.2
24-10-2020 22 (16:20) 9.5 (00:00) 15.8 10.28 (17:20) 6.11 (08:50) 0 0 0 0 0
23-10-2020 20.4 (15:50) 12.1 (00:00) 16.3 11.39 (16:00) 6.67 (16:10) 0 0 0 0 0
22-10-2020 18.8 (12:40) 13.8 (00:00) 16.3 5.83 (06:40) 3.33 (06:50) 3.2 0 0 3.2 0
21-10-2020 24.7 (15:50) 14.3 (00:00) 19.5 11.67 (16:00) 5.56 (16:00) 0 0 0 0 0
20-10-2020 19.2 (16:10) 14.1 (00:00) 16.7 8.89 (20:30) 5.28 (19:00) 0.2 0 0 0.2 0
19-10-2020 21.6 (15:30) 8.4 (00:00) 15 8.06 (14:30) 4.17 (17:40) 0 0 0 0 0
18-10-2020 22.9 (15:30) 6 (00:00) 14.4 7.5 (18:20) 4.17 (18:20) 0 0 0 0 0
17-10-2020 23.3 (16:30) 5.4 (00:00) 14.3 8.06 (18:40) 4.17 (18:40) 0 0 0 0 0
16-10-2020 -- (--) -- (--) -- -- (--) -- (--) -- -- -- -- 0
15-10-2020 -- (--) -- (--) -- -- (--) -- (--) -- -- -- -- --
14-10-2020 -- (--) -- (--) -- -- (--) -- (--) -- -- -- -- --
13-10-2020 -- (--) -- (--) -- -- (--) -- (--) -- -- -- -- --
12-10-2020 -- (--) -- (--) -- -- (--) -- (--) -- -- -- -- --
11-10-2020 -- (--) -- (--) -- -- (--) -- (--) -- -- -- -- --
10-10-2020 -- (--) -- (--) -- -- (--) -- (--) -- 0 0 0 --
09-10-2020 27.3 (16:10) 13.7 (00:00) 20.5 9.72 (16:50) 5 (16:50) 0 0 0 0 0
08-10-2020 26.6 (15:10) 12 (00:00) 19.3 8.06 (18:00) 4.17 (18:20) 0 0 0 0 0
07-10-2020 29.8 (16:30) 13.5 (00:00) 21.6 9.72 (08:50) 6.11 (08:50) 0 0 0 0 0
06-10-2020 29.9 (17:30) 9 (00:00) 19.4 8.89 (12:40) 4.72 (12:20) 0 0 0 0 0
05-10-2020 23 (17:10) 7.9 (00:00) 15.5 10.28 (13:40) 5.56 (12:00) 0 0 0 0 0
04-10-2020 19.8 (15:10) 8.8 (00:00) 14.3 17.22 (15:50) 9.44 (15:50) 0 0 0 0 0
03-10-2020 20.3 (16:50) 8.9 (00:00) 14.6 12.78 (15:40) 7.5 (01:30) 0 0 0 0 0
02-10-2020 20.2 (00:00) 9.9 (00:00) 15.1 20.56 (14:00) 8.33 (13:10) 2.8 0 0 2.8 0
01-10-2020 29.5 (15:10) 12.9 (04:50) 21.2 11.67 (15:30) 6.11 (15:30) 0 0 0 0 0

Gráficas

Temp. máximas Temp. mínimas Temp. medias Precipitaciones Rachas de viento máximas Velocidades máximas media en intervalos de 10 minutos

Datos horarios

Fecha y hora oficial Temperatura (ºC) Velocidad del viento (km/h) Dirección del viento Racha (km/h) Dirección de racha Precipitación (mm) Presión (hPa) Tendencia (hPa) Humedad (%)
2020-10-30 23:00:00 11.7 0 Calma 5 Norte 0 -- -- 90
2020-10-30 22:00:00 12.4 0 Calma 5 Nordeste 0 -- -- 87
2020-10-30 21:00:00 13.7 3 Norte 5 Norte 0 -- -- 85
2020-10-30 20:00:00 15.1 3 Sudoeste 6 Nordeste 0 -- -- 82
2020-10-30 19:00:00 16.7 4 Sudeste 17 Sur 0 -- -- 77
2020-10-30 18:00:00 19.9 10 Sur 21 Sudeste 0 -- -- 62
2020-10-30 17:00:00 24.3 10 Sudeste 22 Sudeste 0 -- -- 42
2020-10-30 16:00:00 25.8 12 Sudeste 21 Sur 0 -- -- 37
2020-10-30 15:00:00 26.4 9 Sudeste 17 Sudeste 0 -- -- 34
2020-10-30 14:00:00 26.4 7 Sur 15 Sudeste 0 -- -- 28
2020-10-30 13:00:00 25.6 6 Sur 9 Sudeste 0 -- -- 22
2020-10-30 12:00:00 22.8 5 Sur 8 Sudoeste 0 -- -- 33
2020-10-30 11:00:00 20 3 Sudoeste 8 Sudoeste 0 -- -- 34
2020-10-30 10:00:00 16.6 0 Calma 19 Oeste 0 -- -- 38
2020-10-30 09:00:00 11.4 7 Noroeste 15 Noroeste 0 -- -- 49
2020-10-30 08:00:00 9 11 Noroeste 23 Noroeste 0 -- -- 56
2020-10-30 07:00:00 9 9 Noroeste 20 Noroeste 0 -- -- 56
2020-10-30 06:00:00 9.1 10 Noroeste 18 Noroeste 0 -- -- 59
2020-10-30 05:00:00 8.4 3 Noroeste 10 Oeste 0 -- -- 69
2020-10-30 04:00:00 8.3 3 Noroeste 7 Norte 0 -- -- 79
2020-10-30 03:00:00 8.9 4 Norte 15 Oeste 0 -- -- 79
2020-10-30 02:00:00 9.2 4 Norte 6 Oeste 0 -- -- 83
2020-10-30 01:00:00 9.7 0 Calma 4 Oeste 0 -- -- 84
2020-10-30 00:00:00 10.2 2 Norte 6 Nordeste 0 -- -- 83
2020-10-29 23:00:00 10.9 4 Norte 6 Nordeste 0 -- -- 84
2020-10-29 22:00:00 11.8 4 Norte 7 Nordeste 0 -- -- 81
2020-10-29 21:00:00 12.7 4 Norte 9 Este 0 -- -- 76
2020-10-29 20:00:00 13.9 4 Nordeste 6 Nordeste 0 -- -- 71
2020-10-29 19:00:00 16.2 0 Calma 8 Sur 0 -- -- 65
2020-10-29 18:00:00 19.7 5 Sudeste 18 Sudeste 0 -- -- 53
2020-10-29 17:00:00 24 9 Sudeste 16 Sur 0 -- -- 42
2020-10-29 16:00:00 24.7 4 Sur 13 Sur 0 -- -- 40
2020-10-29 15:00:00 24.5 5 Nordeste 17 Sur 0 -- -- 41
2020-10-29 14:00:00 24 6 Sur 17 Sudoeste 0 -- -- 43
2020-10-29 13:00:00 23.1 4 Sudoeste 10 Sur 0 -- -- 44
2020-10-29 12:00:00 21.4 6 Sur 13 Sur 0 -- -- 47
2020-10-29 11:00:00 19 4 Sudoeste 9 Oeste 0 -- -- 53
2020-10-29 10:00:00 16.1 4 Oeste 10 Oeste 0 -- -- 60
2020-10-29 09:00:00 11.9 4 Oeste 8 Sudoeste 0 -- -- 75
2020-10-29 08:00:00 9.3 4 Noroeste 17 Noroeste 0 -- -- 81
2020-10-29 07:00:00 8.9 5 Noroeste 9 Noroeste 0 -- -- 84
2020-10-29 06:00:00 8.7 3 Norte 8 Noroeste 0 -- -- 84
2020-10-29 05:00:00 9.2 3 Nordeste 5 Norte 0 -- -- 83
2020-10-29 04:00:00 10.4 4 Norte 11 Noroeste 0 -- -- 77
2020-10-29 03:00:00 9.7 4 Norte 9 Sudoeste 0 -- -- 81
2020-10-29 02:00:00 10.2 3 Oeste 7 Sudoeste 0 -- -- 80
2020-10-29 01:00:00 10.3 3 Norte 5 Norte 0 -- -- 78
2020-10-29 00:00:00 10.7 3 Noroeste 6 Noroeste 0 -- -- 77
2020-10-28 23:00:00 11.4 4 Nordeste 8 Nordeste 0 -- -- 75
2020-10-28 22:00:00 12.3 0 Calma 8 Nordeste 0 -- -- 71
2020-10-28 21:00:00 13 4 Norte 6 Nordeste 0 -- -- 68
2020-10-28 20:00:00 14.8 2 Nordeste 13 Sudeste 0 -- -- 63
2020-10-28 19:00:00 16.6 5 Sudeste 15 Sudeste 0 -- -- 58
2020-10-28 18:00:00 20.2 8 Sudeste 21 Este 0 -- -- 50
2020-10-28 17:00:00 22.3 11 Este 22 Este 0 -- -- 44
2020-10-28 16:00:00 22.9 13 Sudeste 26 Este 0 -- -- 43
2020-10-28 15:00:00 24.8 13 Sudeste 21 Sudeste 0 -- -- 39
2020-10-28 14:00:00 24.1 9 Sudeste 20 Sudeste 0 -- -- 39
2020-10-28 13:00:00 23.6 10 Sudeste 18 Sur 0 -- -- 38
2020-10-28 12:00:00 23.1 6 Sudeste 12 Sudeste 0 -- -- 39
2020-10-28 11:00:00 20.2 7 Sudoeste 18 Oeste 0 -- -- 46
2020-10-28 10:00:00 16.7 10 Oeste 19 Oeste 0 -- -- 53
2020-10-28 09:00:00 13.6 3 Sudeste 14 Noroeste 0 -- -- 59
2020-10-28 08:00:00 9.6 2 Sudeste 8 Nordeste 0 -- -- 70
2020-10-28 07:00:00 9.6 4 Nordeste 15 Noroeste 0 -- -- 68
2020-10-28 06:00:00 10.2 5 Noroeste 13 Noroeste 0 -- -- 67
2020-10-28 05:00:00 10 3 Oeste 18 Norte 0 -- -- 66
2020-10-28 04:00:00 11.7 8 Noroeste 22 Oeste 0 -- -- 58
2020-10-28 03:00:00 12.4 6 Noroeste 21 Noroeste 0 -- -- 56
2020-10-28 02:00:00 11.8 4 Noroeste 18 Oeste 0 -- -- 59
2020-10-28 01:00:00 12.5 13 Noroeste 25 Noroeste 0 -- -- 56
2020-10-28 00:00:00 12.5 8 Noroeste 17 Noroeste 0 -- -- 56
2020-10-27 23:00:00 13 11 Noroeste 19 Noroeste 0 -- -- 54
2020-10-27 22:00:00 13.4 10 Noroeste 19 Noroeste 0 -- -- 51
2020-10-27 21:00:00 14 10 Noroeste 22 Oeste 0 -- -- 48
2020-10-27 20:00:00 15.2 14 Noroeste 33 Oeste 0 -- -- 44
2020-10-27 19:00:00 16 15 Noroeste 30 Noroeste 0 -- -- 42
2020-10-27 18:00:00 17.2 12 Oeste 35 Oeste 0 -- -- 39
2020-10-27 17:00:00 19.6 13 Noroeste 34 Oeste 0 -- -- 33
2020-10-27 16:00:00 19.7 20 Oeste 37 Oeste 0 -- -- 32
2020-10-27 15:00:00 20 13 Oeste 30 Oeste 0 -- -- 33
2020-10-27 14:00:00 18.8 15 Noroeste 30 Oeste 0 -- -- 34
2020-10-27 13:00:00 17 11 Noroeste 31 Noroeste 0 -- -- 38
2020-10-27 12:00:00 15.5 15 Noroeste 32 Oeste 0 -- -- 42
2020-10-27 11:00:00 14.3 18 Oeste 33 Oeste 0 -- -- 44
2020-10-27 10:00:00 12.2 15 Noroeste 30 Noroeste 0 -- -- 49
2020-10-27 09:00:00 9.7 15 Noroeste 25 Noroeste 0 -- -- 56
2020-10-27 08:00:00 7.5 8 Noroeste 18 Oeste 0 -- -- 63
2020-10-27 07:00:00 8 9 Noroeste 24 Noroeste 0 -- -- 61
2020-10-27 06:00:00 8 13 Noroeste 25 Noroeste 0 -- -- 61
2020-10-27 05:00:00 7.9 10 Noroeste 26 Oeste 0 -- -- 61
2020-10-27 04:00:00 8.5 14 Noroeste 24 Noroeste 0 -- -- 59
2020-10-27 03:00:00 8.2 11 Noroeste 18 Norte 0 -- -- 59
2020-10-27 02:00:00 8.2 10 Oeste 20 Noroeste 0 -- -- 58
2020-10-27 01:00:00 8.9 13 Noroeste 27 Noroeste 0 -- -- 56
2020-10-27 00:00:00 9.2 14 Noroeste 24 Noroeste 0 -- -- 56
2020-10-26 23:00:00 9.8 11 Noroeste 20 Noroeste 0 -- -- 54
2020-10-26 22:00:00 10.5 10 Noroeste 19 Noroeste 0 -- -- 52
2020-10-26 21:00:00 11 10 Noroeste 21 Oeste 0 -- -- 50
2020-10-26 20:00:00 12.1 12 Noroeste 28 Noroeste 0 -- -- 45
2020-10-26 19:00:00 13.1 17 Noroeste 33 Oeste 0 -- -- 42
2020-10-26 18:00:00 14.3 19 Noroeste 36 Noroeste 0 -- -- 40
2020-10-26 17:00:00 16.5 17 Oeste 40 Oeste 0 -- -- 36
2020-10-26 16:00:00 16.9 21 Noroeste 39 Oeste 0 -- -- 33
2020-10-26 15:00:00 17.2 20 Oeste 39 Oeste 0 -- -- 35
2020-10-26 14:00:00 16.7 20 Noroeste 39 Noroeste 0 -- -- 36
2020-10-26 13:00:00 15.7 20 Oeste 49 Oeste 0 -- -- 39
2020-10-26 12:00:00 13.4 24 Noroeste 45 Noroeste 0 -- -- 44
2020-10-26 11:00:00 14.1 22 Oeste 45 Noroeste 0 -- -- 45
2020-10-26 10:00:00 12.5 25 Noroeste 46 Noroeste 0 -- -- 51
2020-10-26 09:00:00 11 16 Noroeste 28 Noroeste 0 -- -- 60
2020-10-26 08:00:00 9.2 16 Noroeste 28 Oeste 0 -- -- 68
2020-10-26 07:00:00 9 10 Noroeste 19 Noroeste 0 -- -- 69
2020-10-26 06:00:00 10 13 Noroeste 27 Oeste 0 -- -- 66
2020-10-26 05:00:00 11.1 13 Noroeste 32 Oeste 0 -- -- 62
2020-10-26 04:00:00 11.4 13 Noroeste 26 Noroeste 0 -- -- 75
2020-10-26 03:00:00 11.9 11 Noroeste 41 Noroeste 0.4 -- -- 84
2020-10-26 02:00:00 13.1 24 Noroeste 43 Oeste 0 -- -- 75
2020-10-26 01:00:00 13.2 17 Noroeste 37 Noroeste 0 -- -- 73
2020-10-26 00:00:00 13 22 Noroeste 48 Noroeste 0.2 -- -- 85
2020-10-25 23:00:00 15.1 21 Noroeste 40 Noroeste 0 -- -- 67
2020-10-25 22:00:00 15.3 17 Noroeste 44 Noroeste 0 -- -- 63
2020-10-25 21:00:00 15.7 9 Noroeste 43 Sudoeste 0 -- -- 59
2020-10-25 20:00:00 16.6 10 Noroeste 28 Noroeste 0 -- -- 55
2020-10-25 19:00:00 17.2 12 Noroeste 31 Noroeste 0 -- -- 53
2020-10-25 18:00:00 18.1 12 Oeste 37 Oeste 0 -- -- 49
2020-10-25 17:00:00 18.9 19 Noroeste 39 Oeste 0 -- -- 47
2020-10-25 16:00:00 19.2 17 Oeste 46 Oeste 0 -- -- 47
2020-10-25 15:00:00 19.9 18 Noroeste 41 Oeste 0 -- -- 46
2020-10-25 14:00:00 19.7 20 Noroeste 41 Noroeste 0 -- -- 46
2020-10-25 13:00:00 18.7 20 Oeste 43 Noroeste 0 -- -- 48
2020-10-25 12:00:00 18 24 Noroeste 45 Noroeste 0 -- -- 49
2020-10-25 11:00:00 16.5 22 Noroeste 47 Noroeste 0 -- -- 53
2020-10-25 10:00:00 15.6 28 Noroeste 49 Oeste 0 -- -- 56
2020-10-25 09:00:00 14.2 16 Noroeste 35 Oeste 0 -- -- 61
2020-10-25 08:00:00 11.7 12 Noroeste 21 Noroeste 0 -- -- 70
2020-10-25 07:00:00 11.7 11 Noroeste 27 Oeste 0 -- -- 70
2020-10-25 06:00:00 12.8 16 Noroeste 30 Noroeste 0 -- -- 66
2020-10-25 05:00:00 12.6 12 Noroeste 24 Noroeste 0 -- -- 67
2020-10-25 04:00:00 11.4 10 Noroeste 19 Oeste 0 -- -- 70
2020-10-25 03:00:00 11.9 10 Noroeste 26 Noroeste 0 -- -- 69
2020-10-25 02:00:00 12.6 10 Noroeste 20 Noroeste 0 -- -- 67
2020-10-25 01:00:00 13.2 12 Noroeste 21 Noroeste 0 -- -- 63
2020-10-25 00:00:00 13.4 11 Noroeste 20 Noroeste 0 -- -- 61
2020-10-24 23:00:00 14.1 11 Noroeste 20 Noroeste 0 -- -- 59
2020-10-24 22:00:00 15.9 13 Noroeste 22 Noroeste 0 -- -- 53
2020-10-24 21:00:00 15.9 7 Noroeste 26 Noroeste 0 -- -- 53
2020-10-24 20:00:00 17.5 15 Noroeste 32 Noroeste 0 -- -- 48
2020-10-24 19:00:00 19 13 Noroeste 27 Noroeste 0 -- -- 43
2020-10-24 18:00:00 20.9 17 Noroeste 37 Oeste 0 -- -- 39
2020-10-24 17:00:00 21.5 18 Oeste 37 Oeste 0 -- -- 38
2020-10-24 16:00:00 21.6 18 Oeste 31 Oeste 0 -- -- 37
2020-10-24 15:00:00 21.2 16 Oeste 29 Sudoeste 0 -- -- 39
2020-10-24 14:00:00 20.2 13 Oeste 27 Sudoeste 0 -- -- 43
2020-10-24 13:00:00 18.4 16 Oeste 28 Oeste 0 -- -- 45
2020-10-24 12:00:00 17.1 13 Oeste 26 Oeste 0 -- -- 49
2020-10-24 11:00:00 14.8 12 Noroeste 26 Noroeste 0 -- -- 57
2020-10-24 10:00:00 11.7 16 Noroeste 32 Noroeste 0 -- -- 65
2020-10-24 09:00:00 10 21 Noroeste 33 Noroeste 0 -- -- 69
2020-10-24 08:00:00 9.7 14 Noroeste 26 Noroeste 0 -- -- 71
2020-10-24 07:00:00 9.9 19 Noroeste 28 Noroeste 0 -- -- 70
2020-10-24 06:00:00 11 18 Noroeste 27 Noroeste 0 -- -- 66
2020-10-24 05:00:00 11.1 12 Noroeste 19 Noroeste 0 -- -- 67
2020-10-24 04:00:00 10.9 10 Noroeste 19 Norte 0 -- -- 68
2020-10-24 03:00:00 10.9 5 Noroeste 13 Noroeste 0 -- -- 67
2020-10-24 02:00:00 11.1 7 Noroeste 15 Noroeste 0 -- -- 67
2020-10-24 01:00:00 11.5 8 Noroeste 23 Noroeste 0 -- -- 67
2020-10-24 00:00:00 12.7 14 Noroeste 24 Noroeste 0 -- -- 63
2020-10-23 23:00:00 13.1 13 Noroeste 23 Noroeste 0 -- -- 61
2020-10-23 22:00:00 13.5 11 Noroeste 22 Noroeste 0 -- -- 61
2020-10-23 21:00:00 14.3 10 Noroeste 27 Noroeste 0 -- -- 57
2020-10-23 20:00:00 15.5 13 Noroeste 24 Noroeste 0 -- -- 51
2020-10-23 19:00:00 16.8 16 Noroeste 34 Noroeste 0 -- -- 47
2020-10-23 18:00:00 19.3 20 Oeste 38 Oeste 0 -- -- 42
2020-10-23 17:00:00 19.4 19 Oeste 40 Sudoeste 0 -- -- 40
2020-10-23 16:00:00 20.4 22 Oeste 41 Sudoeste 0 -- -- 38
2020-10-23 15:00:00 19.6 19 Oeste 39 Noroeste 0 -- -- 43
2020-10-23 14:00:00 19.3 17 Noroeste 36 Noroeste 0 -- -- 46
2020-10-23 13:00:00 18.6 16 Oeste 33 Oeste 0 -- -- 50
2020-10-23 12:00:00 15.8 13 Noroeste 29 Noroeste 0 -- -- 61
2020-10-23 11:00:00 15.5 9 Noroeste 22 Oeste 0 -- -- 66
2020-10-23 10:00:00 14.1 9 Noroeste 18 Noroeste 0 -- -- 75
2020-10-23 09:00:00 12.2 9 Noroeste 15 Noroeste 0 -- -- 82
2020-10-23 08:00:00 13.2 10 Noroeste 20 Noroeste 0 -- -- 77
2020-10-23 07:00:00 13.2 10 Noroeste 18 Noroeste 0 -- -- 80
2020-10-23 06:00:00 13.9 10 Noroeste 28 Noroeste 0 -- -- 79
2020-10-23 05:00:00 13.3 9 Noroeste 21 Noroeste 0 -- -- 86
2020-10-23 04:00:00 13.9 11 Noroeste 20 Noroeste 0 -- -- 86
2020-10-23 03:00:00 13.7 7 Noroeste 13 Noroeste 0 -- -- 90
2020-10-23 02:00:00 14.5 6 Noroeste 14 Noroeste 0 -- -- 86
2020-10-23 01:00:00 14.1 5 Oeste 16 Noroeste 0 -- -- 93
2020-10-23 00:00:00 14.7 4 Noroeste 8 Norte 0 -- -- 96
2020-10-22 23:00:00 15.1 0 Calma 5 Sudoeste 0 -- -- 96
2020-10-22 22:00:00 15.2 0 Calma 5 Sudeste 0 -- -- 95
2020-10-22 21:00:00 15.3 3 Sudeste 5 Sudeste 0 -- -- 95
2020-10-22 20:00:00 15.6 2 Sudoeste 5 Sudeste 0 -- -- 94
2020-10-22 19:00:00 15.9 2 Sur 7 Sudeste 0 -- -- 93
2020-10-22 18:00:00 16.4 0 Calma 5 Sudeste 0.2 -- -- 91
2020-10-22 17:00:00 16.6 0 Calma 6 Este 0.2 -- -- 89
2020-10-22 16:00:00 16.5 3 Este 6 Sudeste 2 -- -- 91
2020-10-22 15:00:00 16.7 4 Sudeste 10 Sudoeste 0.6 -- -- 87
2020-10-22 14:00:00 17.3 4 Noroeste 8 Sudeste 0.2 -- -- 79
2020-10-22 13:00:00 18.2 5 Sur 10 Sudeste 0 -- -- 67
2020-10-22 12:00:00 17.6 2 Sudeste 5 Sudeste 0 -- -- 66
2020-10-22 11:00:00 16.9 3 Oeste 5 Oeste 0 -- -- 68
2020-10-22 10:00:00 15 3 Noroeste 6 Noroeste 0 -- -- 76
2020-10-22 09:00:00 13.8 0 Calma 10 Oeste 0 -- -- 77
2020-10-22 08:00:00 14.6 4 Oeste 14 Noroeste 0 -- -- 76
2020-10-22 07:00:00 16 11 Noroeste 21 Noroeste 0 -- -- 70
2020-10-22 06:00:00 14.6 3 Noroeste 14 Este 0 -- -- 77
2020-10-22 05:00:00 14.9 3 Oeste 10 Oeste 0 -- -- 76
2020-10-22 04:00:00 15.2 2 Oeste 11 Nordeste 0 -- -- 72
2020-10-22 03:00:00 16.4 8 Noroeste 18 Noroeste 0 -- -- 66
2020-10-22 02:00:00 15.1 5 Oeste 15 Sudoeste 0 -- -- 74
2020-10-22 01:00:00 16.4 5 Noroeste 13 Noroeste 0 -- -- 64
2020-10-22 00:00:00 15.8 3 Norte 7 Norte 0 -- -- 71
2020-10-21 23:00:00 15.6 3 Norte 6 Norte 0 -- -- 73
2020-10-21 22:00:00 16.1 3 Noroeste 8 Este 0 -- -- 71
2020-10-21 21:00:00 16.8 0 Calma 8 Nordeste 0 -- -- 67
2020-10-21 20:00:00 18.6 3 Sur 6 Sur 0 -- -- 60
2020-10-21 19:00:00 21 3 Oeste 27 Oeste 0 -- -- 43
2020-10-21 18:00:00 22.2 8 Oeste 28 Oeste 0 -- -- 40
2020-10-21 17:00:00 22.9 14 Oeste 32 Sudoeste 0 -- -- 40
2020-10-21 16:00:00 24.1 20 Sudoeste 42 Oeste 0 -- -- 35
2020-10-21 15:00:00 23.7 13 Oeste 30 Oeste 0 -- -- 43
2020-10-21 14:00:00 24 10 Oeste 28 Oeste 0 -- -- 42
2020-10-21 13:00:00 22.6 11 Oeste 28 Noroeste 0 -- -- 46
2020-10-21 12:00:00 21.8 12 Oeste 28 Noroeste 0 -- -- 47
2020-10-21 11:00:00 20.5 7 Noroeste 22 Noroeste 0 -- -- 51
2020-10-21 10:00:00 17.2 6 Oeste 20 Noroeste 0 -- -- 67
2020-10-21 09:00:00 16.5 13 Noroeste 26 Noroeste 0 -- -- 68
2020-10-21 08:00:00 14.4 0 Calma 5 Este 0 -- -- 85
2020-10-21 07:00:00 14.6 3 Nordeste 6 Nordeste 0 -- -- 86
2020-10-21 06:00:00 15.4 0 Calma 6 Oeste 0 -- -- 83
2020-10-21 05:00:00 15.2 3 Norte 6 Oeste 0 -- -- 86
2020-10-21 04:00:00 15.8 4 Noroeste 22 Noroeste 0 -- -- 86
2020-10-21 03:00:00 16 14 Noroeste 23 Noroeste 0 -- -- 88
2020-10-21 02:00:00 15.4 4 Nordeste 10 Sudeste 0 -- -- 90
2020-10-21 01:00:00 15.6 6 Sudeste 17 Sudeste 0 -- -- 89
2020-10-21 00:00:00 15.7 9 Sudeste 18 Sudeste 0 -- -- 89
2020-10-20 23:00:00 15.8 9 Sudeste 17 Sudeste 0 -- -- 87
2020-10-20 22:00:00 16.2 12 Sudeste 20 Sudeste 0 -- -- 84
2020-10-20 21:00:00 16.7 10 Sudeste 32 Sudeste 0 -- -- 81
2020-10-20 20:00:00 16.9 12 Sudeste 27 Este 0 -- -- 81
2020-10-20 19:00:00 17.3 19 Sudeste 31 Este 0 -- -- 79
2020-10-20 18:00:00 17.9 15 Este 31 Sudeste 0 -- -- 76
2020-10-20 17:00:00 18.1 15 Sudeste 31 Sudeste 0 -- -- 74
2020-10-20 16:00:00 18.8 15 Sudeste 28 Sudeste 0 -- -- 71
2020-10-20 15:00:00 17.3 12 Sudeste 21 Sudeste 0 -- -- 80
2020-10-20 14:00:00 16.8 8 Sudeste 21 Sudeste 0.2 -- -- 86
2020-10-20 13:00:00 16.9 11 Sudeste 27 Sudeste 0 -- -- 82
2020-10-20 12:00:00 17.1 5 Sudeste 24 Este 0 -- -- 78
2020-10-20 11:00:00 16.2 7 Sudeste 17 Sudeste 0 -- -- 82
2020-10-20 10:00:00 15 5 Este 10 Sudeste 0 -- -- 91
2020-10-20 09:00:00 14.3 4 Este 9 Este 0 -- -- 93
2020-10-20 08:00:00 14.1 4 Este 7 Sudeste 0 -- -- 93
2020-10-20 07:00:00 14.5 4 Sudeste 9 Sudeste 0 -- -- 92
2020-10-20 06:00:00 14.4 5 Sudeste 10 Sudeste 0 -- -- 92
2020-10-20 05:00:00 14.5 4 Este 8 Este 0 -- -- 91
2020-10-20 04:00:00 14.5 5 Sudeste 7 Este 0 -- -- 89
2020-10-20 03:00:00 14.9 5 Sudeste 8 Sudeste 0 -- -- 88
2020-10-20 02:00:00 15.1 0 Calma 4 Este 0 -- -- 86
2020-10-20 01:00:00 15.2 0 Calma 5 Sudeste 0 -- -- 86
2020-10-20 00:00:00 15.1 3 Sudeste 9 Sudeste 0 -- -- 86
2020-10-19 23:00:00 15.5 5 Sur 12 Sudeste 0 -- -- 84
2020-10-19 22:00:00 15.6 8 Sudeste 16 Sudeste 0 -- -- 83
2020-10-19 21:00:00 15.8 9 Sudeste 20 Sudeste 0 -- -- 81
2020-10-19 20:00:00 15.7 11 Sudeste 24 Este 0 -- -- 80
2020-10-19 19:00:00 17.1 12 Sudeste 26 Sudeste 0 -- -- 71
2020-10-19 18:00:00 20 14 Sudeste 26 Sudeste 0 -- -- 56
2020-10-19 17:00:00 21.1 13 Sudeste 27 Sudeste 0 -- -- 53
2020-10-19 16:00:00 21.5 12 Sudeste 27 Sudeste 0 -- -- 49
2020-10-19 15:00:00 21.3 14 Sudeste 29 Sudeste 0 -- -- 50
2020-10-19 14:00:00 20.3 12 Sur 25 Sur 0 -- -- 52
2020-10-19 13:00:00 19.1 13 Sur 22 Sudeste 0 -- -- 55
2020-10-19 12:00:00 18.2 5 Sudeste 12 Sudeste 0 -- -- 63
2020-10-19 11:00:00 16.4 3 Sudoeste 8 Sur 0 -- -- 64
2020-10-19 10:00:00 12.2 0 Calma 5 Este 0 -- -- 74
2020-10-19 09:00:00 9.8 0 Calma 8 Oeste 0 -- -- 81
2020-10-19 08:00:00 9.4 0 Calma 10 Oeste 0 -- -- 83
2020-10-19 07:00:00 8.5 0 Calma 5 Nordeste 0 -- -- 86
2020-10-19 06:00:00 8.6 3 Norte 6 Nordeste 0 -- -- 89
2020-10-19 05:00:00 8.9 0 Calma 8 Noroeste 0 -- -- 88
2020-10-19 04:00:00 8.9 2 Nordeste 6 Nordeste 0 -- -- 89
2020-10-19 03:00:00 9.2 3 Nordeste 5 Nordeste 0 -- -- 89
2020-10-19 02:00:00 10.2 0 Calma 5 Nordeste 0 -- -- 87
2020-10-19 01:00:00 11.1 3 Nordeste 7 Norte 0 -- -- 85
2020-10-19 00:00:00 12.2 5 Norte 9 Nordeste 0 -- -- 83
2020-10-18 23:00:00 13.1 4 Nordeste 8 Este 0 -- -- 82
2020-10-18 22:00:00 14.9 2 Sudeste 8 Este 0 -- -- 78
2020-10-18 21:00:00 15 6 Este 17 Sudeste 0 -- -- 79
2020-10-18 20:00:00 15.8 10 Sudeste 21 Sudeste 0 -- -- 72
2020-10-18 19:00:00 17.9 13 Sudeste 27 Sudeste 0 -- -- 60
2020-10-18 18:00:00 21.2 13 Sudeste 24 Sur 0 -- -- 47
2020-10-18 17:00:00 22.4 12 Sudeste 26 Sudeste 0 -- -- 36
2020-10-18 16:00:00 22.7 13 Sudeste 23 Sudeste 0 -- -- 32
2020-10-18 15:00:00 22.7 10 Sudeste 24 Sur 0 -- -- 30
2020-10-18 14:00:00 21.9 12 Sudeste 22 Sudeste 0 -- -- 31
2020-10-18 13:00:00 21.6 8 Sudeste 16 Sudeste 0 -- -- 30
2020-10-18 12:00:00 18.7 2 Sur 8 Sudoeste 0 -- -- 35
2020-10-18 11:00:00 15.3 0 Calma -- -- 0 -- -- 42
2020-10-18 10:00:00 10.7 0 Calma 5 Oeste 0 -- -- 54
2020-10-18 09:00:00 6.8 3 Noroeste 18 Noroeste 0 -- -- 68
2020-10-18 08:00:00 6.9 10 Noroeste 17 Noroeste 0 -- -- 64
2020-10-18 07:00:00 6 3 Norte 10 Noroeste 0 -- -- 75
2020-10-18 06:00:00 6.2 3 Norte 6 Noroeste 0 -- -- 78
2020-10-18 05:00:00 6.3 0 Calma 5 Noroeste 0 -- -- 78
2020-10-18 04:00:00 7.1 3 Norte 5 Oeste 0 -- -- 78
2020-10-18 03:00:00 7.1 0 Calma 4 Nordeste 0 -- -- 80
2020-10-18 02:00:00 7.8 3 Noroeste 5 Oeste 0 -- -- 78
2020-10-18 01:00:00 8.5 0 Calma -- -- 0 -- -- 76
2020-10-18 00:00:00 9 0 Calma 4 Este 0 -- -- 75
2020-10-17 23:00:00 10.4 6 Nordeste 8 Nordeste 0 -- -- 69
2020-10-17 22:00:00 11.1 5 Nordeste 8 Norte 0 -- -- 68
2020-10-17 21:00:00 12.5 3 Nordeste 9 Sudeste 0 -- -- 68
2020-10-17 20:00:00 14.6 7 Sudeste 19 Sudeste 0 -- -- 60
2020-10-17 19:00:00 17.9 14 Sudeste 29 Sudeste 0 -- -- 44
2020-10-17 18:00:00 22.9 8 Oeste 24 Oeste 0 -- -- 22
2020-10-17 17:00:00 22.6 11 Oeste 24 Oeste 0 -- -- 22
2020-10-17 16:00:00 22.9 9 Noroeste 26 Oeste 0 -- -- 23
2020-10-17 15:00:00 21.8 11 Oeste 23 Oeste 0 -- -- 25
2020-10-17 14:00:00 20.3 8 Oeste 26 Oeste 0 -- -- 30
2020-10-17 13:00:00 18.9 9 Oeste 24 Noroeste 0 -- -- 34
2020-10-17 12:00:00 16.6 9 Oeste 19 Noroeste 0 -- -- 40
2020-10-17 11:00:00 12.9 5 Noroeste 17 Oeste 0 -- -- 54
2020-10-17 10:00:00 8.6 7 Noroeste 15 Noroeste 0 -- -- 66
2020-10-17 09:00:00 6.4 6 Noroeste 17 Noroeste 0 -- -- 75
2020-10-17 08:00:00 5.5 4 Oeste 14 Noroeste 0 -- -- 78
2020-10-17 07:00:00 5.8 3 Oeste 13 Oeste 0 -- -- 77
2020-10-17 06:00:00 5.8 3 Oeste 10 Oeste 0 -- -- 78
2020-10-17 05:00:00 5.7 2 Oeste 6 Sudoeste 0 -- -- 80
2020-10-17 04:00:00 6.7 0 Calma 5 Oeste 0 -- -- 75
2020-10-17 03:00:00 6.9 2 Nordeste 7 Oeste 0 -- -- 76
2020-10-17 02:00:00 7.4 2 Oeste 6 Nordeste 0 -- -- 77
2020-10-17 01:00:00 7.4 4 Oeste 6 Este 0 -- -- 75
2020-10-17 00:00:00 8.2 3 Sudoeste 7 Norte 0 -- -- 72
2020-10-16 23:00:00 9.4 4 Este 8 Nordeste 0 -- -- 69
2020-10-16 22:00:00 10.2 4 Este 16 Este 0 -- -- 66
2020-10-16 21:00:00 11.6 8 Sudeste 21 Sudeste 0 -- -- 60
2020-10-16 20:00:00 13.2 11 Sudeste 22 Este 0 -- -- 51
2020-10-16 19:00:00 18.7 6 Sur 15 Sudeste 0 -- -- 28
2020-10-16 18:00:00 20.1 9 Oeste 18 Oeste 0 -- -- 24
2020-10-16 17:00:00 20.3 8 Sudoeste 16 Oeste 0 -- -- 25
2020-10-16 16:00:00 19.4 10 Oeste 27 Oeste 0 -- -- 24
2020-10-16 15:00:00 19 11 Oeste 25 Oeste 0 -- -- 26
2020-10-16 14:00:00 17.5 7 Noroeste 22 Noroeste 0 -- -- 30
2020-10-16 13:00:00 -- -- -- -- -- -- -- -- --
2020-10-16 12:00:00 -- -- -- -- -- -- -- -- --
2020-10-16 11:00:00 -- -- -- -- -- -- -- -- --
2020-10-16 10:00:00 -- -- -- -- -- -- -- -- --
2020-10-16 09:00:00 -- -- -- -- -- -- -- -- --
2020-10-16 08:00:00 -- -- -- -- -- -- -- -- --
2020-10-16 07:00:00 -- -- -- -- -- -- -- -- --
2020-10-16 06:00:00 -- -- -- -- -- -- -- -- --
2020-10-16 05:00:00 -- -- -- -- -- -- -- -- --
2020-10-16 04:00:00 -- -- -- -- -- -- -- -- --
2020-10-16 03:00:00 -- -- -- -- -- -- -- -- --
2020-10-16 02:00:00 -- -- -- -- -- -- -- -- --
2020-10-16 01:00:00 -- -- -- -- -- -- -- -- --
2020-10-16 00:00:00 -- -- -- -- -- -- -- -- --
2020-10-15 23:00:00 -- -- -- -- -- -- -- -- --
2020-10-15 22:00:00 -- -- -- -- -- -- -- -- --
2020-10-15 21:00:00 -- -- -- -- -- -- -- -- --
2020-10-15 20:00:00 -- -- -- -- -- -- -- -- --
2020-10-15 19:00:00 -- -- -- -- -- -- -- -- --
2020-10-15 18:00:00 -- -- -- -- -- -- -- -- --
2020-10-15 17:00:00 -- -- -- -- -- -- -- -- --
2020-10-15 16:00:00 -- -- -- -- -- -- -- -- --
2020-10-15 15:00:00 -- -- -- -- -- -- -- -- --
2020-10-15 14:00:00 -- -- -- -- -- -- -- -- --
2020-10-15 13:00:00 -- -- -- -- -- -- -- -- --
2020-10-15 12:00:00 -- -- -- -- -- -- -- -- --
2020-10-15 11:00:00 -- -- -- -- -- -- -- -- --
2020-10-15 10:00:00 -- -- -- -- -- -- -- -- --
2020-10-15 09:00:00 -- -- -- -- -- -- -- -- --
2020-10-15 08:00:00 -- -- -- -- -- -- -- -- --
2020-10-15 07:00:00 -- -- -- -- -- -- -- -- --
2020-10-15 06:00:00 -- -- -- -- -- -- -- -- --
2020-10-15 05:00:00 -- -- -- -- -- -- -- -- --
2020-10-15 04:00:00 -- -- -- -- -- -- -- -- --
2020-10-15 03:00:00 -- -- -- -- -- -- -- -- --
2020-10-15 02:00:00 -- -- -- -- -- -- -- -- --
2020-10-15 01:00:00 -- -- -- -- -- -- -- -- --
2020-10-15 00:00:00 -- -- -- -- -- -- -- -- --
2020-10-14 23:00:00 -- -- -- -- -- -- -- -- --
2020-10-14 22:00:00 -- -- -- -- -- -- -- -- --
2020-10-14 21:00:00 -- -- -- -- -- -- -- -- --
2020-10-14 20:00:00 -- -- -- -- -- -- -- -- --
2020-10-14 19:00:00 -- -- -- -- -- -- -- -- --
2020-10-14 18:00:00 -- -- -- -- -- -- -- -- --
2020-10-14 17:00:00 -- -- -- -- -- -- -- -- --
2020-10-14 16:00:00 -- -- -- -- -- -- -- -- --
2020-10-14 15:00:00 -- -- -- -- -- -- -- -- --
2020-10-14 14:00:00 -- -- -- -- -- -- -- -- --
2020-10-14 13:00:00 -- -- -- -- -- -- -- -- --
2020-10-14 12:00:00 -- -- -- -- -- -- -- -- --
2020-10-14 11:00:00 -- -- -- -- -- -- -- -- --
2020-10-14 10:00:00 -- -- -- -- -- -- -- -- --
2020-10-14 09:00:00 -- -- -- -- -- -- -- -- --
2020-10-14 08:00:00 -- -- -- -- -- -- -- -- --
2020-10-14 07:00:00 -- -- -- -- -- -- -- -- --
2020-10-14 06:00:00 -- -- -- -- -- -- -- -- --
2020-10-14 05:00:00 -- -- -- -- -- -- -- -- --
2020-10-14 04:00:00 -- -- -- -- -- -- -- -- --
2020-10-14 03:00:00 -- -- -- -- -- -- -- -- --
2020-10-14 02:00:00 -- -- -- -- -- -- -- -- --
2020-10-14 01:00:00 -- -- -- -- -- -- -- -- --
2020-10-14 00:00:00 -- -- -- -- -- -- -- -- --
2020-10-13 23:00:00 -- -- -- -- -- -- -- -- --
2020-10-13 22:00:00 -- -- -- -- -- -- -- -- --
2020-10-13 21:00:00 -- -- -- -- -- -- -- -- --
2020-10-13 20:00:00 -- -- -- -- -- -- -- -- --
2020-10-13 19:00:00 -- -- -- -- -- -- -- -- --
2020-10-13 18:00:00 -- -- -- -- -- -- -- -- --
2020-10-13 17:00:00 -- -- -- -- -- -- -- -- --
2020-10-13 16:00:00 -- -- -- -- -- -- -- -- --
2020-10-13 15:00:00 -- -- -- -- -- -- -- -- --
2020-10-13 14:00:00 -- -- -- -- -- -- -- -- --
2020-10-13 13:00:00 -- -- -- -- -- -- -- -- --
2020-10-13 12:00:00 -- -- -- -- -- -- -- -- --
2020-10-13 11:00:00 -- -- -- -- -- -- -- -- --
2020-10-13 10:00:00 -- -- -- -- -- -- -- -- --
2020-10-13 09:00:00 -- -- -- -- -- -- -- -- --
2020-10-13 08:00:00 -- -- -- -- -- -- -- -- --
2020-10-13 07:00:00 -- -- -- -- -- -- -- -- --
2020-10-13 06:00:00 -- -- -- -- -- -- -- -- --
2020-10-13 05:00:00 -- -- -- -- -- -- -- -- --
2020-10-13 04:00:00 -- -- -- -- -- -- -- -- --
2020-10-13 03:00:00 -- -- -- -- -- -- -- -- --
2020-10-13 02:00:00 -- -- -- -- -- -- -- -- --
2020-10-13 01:00:00 -- -- -- -- -- -- -- -- --
2020-10-13 00:00:00 -- -- -- -- -- -- -- -- --
2020-10-12 23:00:00 -- -- -- -- -- -- -- -- --
2020-10-12 22:00:00 -- -- -- -- -- -- -- -- --
2020-10-12 21:00:00 -- -- -- -- -- -- -- -- --
2020-10-12 20:00:00 -- -- -- -- -- -- -- -- --
2020-10-12 19:00:00 -- -- -- -- -- -- -- -- --
2020-10-12 18:00:00 -- -- -- -- -- -- -- -- --
2020-10-12 17:00:00 -- -- -- -- -- -- -- -- --
2020-10-12 16:00:00 -- -- -- -- -- -- -- -- --
2020-10-12 15:00:00 -- -- -- -- -- -- -- -- --
2020-10-12 14:00:00 -- -- -- -- -- -- -- -- --
2020-10-12 13:00:00 -- -- -- -- -- -- -- -- --
2020-10-12 12:00:00 -- -- -- -- -- -- -- -- --
2020-10-12 11:00:00 -- -- -- -- -- -- -- -- --
2020-10-12 10:00:00 -- -- -- -- -- -- -- -- --
2020-10-12 09:00:00 -- -- -- -- -- -- -- -- --
2020-10-12 08:00:00 -- -- -- -- -- -- -- -- --
2020-10-12 07:00:00 -- -- -- -- -- -- -- -- --
2020-10-12 06:00:00 -- -- -- -- -- -- -- -- --
2020-10-12 05:00:00 -- -- -- -- -- -- -- -- --
2020-10-12 04:00:00 -- -- -- -- -- -- -- -- --
2020-10-12 03:00:00 -- -- -- -- -- -- -- -- --
2020-10-12 02:00:00 -- -- -- -- -- -- -- -- --
2020-10-12 01:00:00 -- -- -- -- -- -- -- -- --
2020-10-12 00:00:00 -- -- -- -- -- -- -- -- --
2020-10-11 23:00:00 -- -- -- -- -- -- -- -- --
2020-10-11 22:00:00 -- -- -- -- -- -- -- -- --
2020-10-11 21:00:00 -- -- -- -- -- -- -- -- --
2020-10-11 20:00:00 -- -- -- -- -- -- -- -- --
2020-10-11 19:00:00 -- -- -- -- -- -- -- -- --
2020-10-11 18:00:00 -- -- -- -- -- -- -- -- --
2020-10-11 17:00:00 -- -- -- -- -- -- -- -- --
2020-10-11 16:00:00 -- -- -- -- -- -- -- -- --
2020-10-11 15:00:00 -- -- -- -- -- -- -- -- --
2020-10-11 14:00:00 -- -- -- -- -- -- -- -- --
2020-10-11 13:00:00 -- -- -- -- -- -- -- -- --
2020-10-11 12:00:00 -- -- -- -- -- -- -- -- --
2020-10-11 11:00:00 -- -- -- -- -- -- -- -- --
2020-10-11 10:00:00 -- -- -- -- -- -- -- -- --
2020-10-11 09:00:00 -- -- -- -- -- -- -- -- --
2020-10-11 08:00:00 -- -- -- -- -- -- -- -- --
2020-10-11 07:00:00 -- -- -- -- -- -- -- -- --
2020-10-11 06:00:00 -- -- -- -- -- -- -- -- --
2020-10-11 05:00:00 -- -- -- -- -- -- -- -- --
2020-10-11 04:00:00 -- -- -- -- -- -- -- -- --
2020-10-11 03:00:00 -- -- -- -- -- -- -- -- --
2020-10-11 02:00:00 -- -- -- -- -- -- -- -- --
2020-10-11 01:00:00 -- -- -- -- -- -- -- -- --
2020-10-11 00:00:00 -- -- -- -- -- -- -- -- --
2020-10-10 23:00:00 -- -- -- -- -- -- -- -- --
2020-10-10 22:00:00 -- -- -- -- -- -- -- -- --
2020-10-10 21:00:00 -- -- -- -- -- -- -- -- --
2020-10-10 20:00:00 -- -- -- -- -- -- -- -- --
2020-10-10 19:00:00 -- -- -- -- -- -- -- -- --
2020-10-10 18:00:00 21.1 14 Sudeste 24 Sudeste 0 -- -- 71
2020-10-10 17:00:00 24.5 12 Sur 23 Sudeste 0 -- -- 54
2020-10-10 16:00:00 24.6 9 Sudeste 19 Sudeste 0 -- -- 53
2020-10-10 15:00:00 23.7 6 Sur 15 Sudeste 0 -- -- 56
2020-10-10 14:00:00 21.8 6 Sudoeste 16 Sudoeste 0 -- -- 62
2020-10-10 13:00:00 22.6 4 Oeste 13 Sudoeste 0 -- -- 61
2020-10-10 12:00:00 19.4 4 Oeste 11 Sudoeste 0 -- -- 71
2020-10-10 11:00:00 18.2 4 Oeste 11 Sudoeste 0 -- -- 75
2020-10-10 10:00:00 14.8 4 Oeste 7 Oeste 0 -- -- 90
2020-10-10 09:00:00 12.5 4 Oeste 6 Noroeste 0 -- -- 94
2020-10-10 08:00:00 12.6 0 Calma 5 Norte 0 -- -- 94
2020-10-10 07:00:00 12.8 3 Nordeste 5 Nordeste 0 -- -- 94
2020-10-10 06:00:00 13.3 0 Calma 6 Nordeste 0 -- -- 93
2020-10-10 05:00:00 13.8 3 Nordeste 6 Nordeste 0 -- -- 92
2020-10-10 04:00:00 14.3 4 Nordeste 6 Nordeste 0 -- -- 91
2020-10-10 03:00:00 14.9 4 Nordeste 6 Nordeste 0 -- -- 91
2020-10-10 02:00:00 15.8 2 Norte 6 Nordeste 0 -- -- 90
2020-10-10 01:00:00 16.8 4 Norte 8 Norte 0 -- -- 89
2020-10-10 00:00:00 17.7 0 Calma 4 Sudeste 0 -- -- 87
2020-10-09 23:00:00 18.2 4 Sudeste 13 Sudeste 0 -- -- 86
2020-10-09 22:00:00 18.4 8 Sudeste 14 Sur 0 -- -- 85
2020-10-09 21:00:00 18.8 7 Sudeste 22 Sudeste 0 -- -- 83
2020-10-09 20:00:00 19.4 13 Sudeste 26 Sudeste 0 -- -- 80
2020-10-09 19:00:00 21 15 Sudeste 31 Sudeste 0 -- -- 74
2020-10-09 18:00:00 24.3 14 Sudeste 29 Sudeste 0 -- -- 62
2020-10-09 17:00:00 25.6 15 Sudeste 35 Sudeste 0 -- -- 57
2020-10-09 16:00:00 27.2 14 Sudeste 28 Sudeste 0 -- -- 49
2020-10-09 15:00:00 27.1 15 Sudeste 28 Sudeste 0 -- -- 48
2020-10-09 14:00:00 27.2 12 Sudeste 21 Sudeste 0 -- -- 45
2020-10-09 13:00:00 26.5 8 Sudeste 17 Sudeste 0 -- -- 45
2020-10-09 12:00:00 25.2 3 Sudeste 8 Oeste 0 -- -- 48
2020-10-09 11:00:00 21 6 Noroeste 13 Noroeste 0 -- -- 61
2020-10-09 10:00:00 17.8 6 Noroeste 17 Noroeste 0 -- -- 72
2020-10-09 09:00:00 14.5 4 Noroeste 10 Oeste 0 -- -- 89
2020-10-09 08:00:00 13.7 3 Noroeste 10 Noroeste 0 -- -- 90
2020-10-09 07:00:00 14.3 3 Norte 8 Oeste 0 -- -- 89
2020-10-09 06:00:00 14.7 4 Nordeste 6 Nordeste 0 -- -- 89
2020-10-09 05:00:00 15.6 5 Norte 8 Noroeste 0 -- -- 88
2020-10-09 04:00:00 15.9 4 Nordeste 7 Nordeste 0 -- -- 85
2020-10-09 03:00:00 16.7 2 Norte 5 Oeste 0 -- -- 84
2020-10-09 02:00:00 18.4 0 Calma 3 Oeste 0 -- -- 84
2020-10-09 01:00:00 18.4 0 Calma 4 Oeste 0 -- -- 84
2020-10-09 00:00:00 18.4 0 Calma 9 Sudeste 0 -- -- 84
2020-10-08 23:00:00 18.6 5 Sudeste 12 Sur 0 -- -- 82
2020-10-08 22:00:00 18.9 6 Sudeste 16 Sudeste 0 -- -- 80
2020-10-08 21:00:00 19.2 12 Sudeste 26 Sudeste 0 -- -- 81
2020-10-08 20:00:00 19.8 12 Sudeste 27 Sudeste 0 -- -- 78
2020-10-08 19:00:00 22.5 13 Sudeste 25 Sudeste 0 -- -- 66
2020-10-08 18:00:00 24.9 14 Sudeste 29 Sudeste 0 -- -- 58
2020-10-08 17:00:00 26.2 12 Sur 25 Sur 0 -- -- 52
2020-10-08 16:00:00 26.5 11 Sudeste 25 Sudeste 0 -- -- 49
2020-10-08 15:00:00 26 10 Sur 20 Sur 0 -- -- 47
2020-10-08 14:00:00 25.4 7 Sur 14 Oeste 0 -- -- 47
2020-10-08 13:00:00 24.5 5 Sudoeste 14 Sur 0 -- -- 50
2020-10-08 12:00:00 23.6 5 Sudeste 11 Sur 0 -- -- 52
2020-10-08 11:00:00 20.4 2 Oeste 6 Oeste 0 -- -- 59
2020-10-08 10:00:00 16.1 3 Sudoeste 6 Oeste 0 -- -- 68
2020-10-08 09:00:00 12.8 0 Calma 8 Oeste 0 -- -- 81
2020-10-08 08:00:00 12 4 Oeste 9 Oeste 0 -- -- 80
2020-10-08 07:00:00 12.3 2 Noroeste 7 Oeste 0 -- -- 80
2020-10-08 06:00:00 12.5 4 Oeste 8 Oeste 0 -- -- 78
2020-10-08 05:00:00 13 2 Noroeste 6 Oeste 0 -- -- 76
2020-10-08 04:00:00 13.3 0 Calma 4 Nordeste 0 -- -- 75
2020-10-08 03:00:00 14 2 Nordeste 8 Oeste 0 -- -- 71
2020-10-08 02:00:00 14.8 0 Calma 5 Nordeste 0 -- -- 68
2020-10-08 01:00:00 15.9 3 Oeste 7 Norte 0 -- -- 64
2020-10-08 00:00:00 17.3 3 Noroeste 11 Este 0 -- -- 60
2020-10-07 23:00:00 18.9 7 Este 14 Nordeste 0 -- -- 54
2020-10-07 22:00:00 19.9 6 Este 12 Este 0 -- -- 53
2020-10-07 21:00:00 21.6 6 Sudeste 12 Sudeste 0 -- -- 49
2020-10-07 20:00:00 23.9 4 Sudeste 24 Sudeste 0 -- -- 43
2020-10-07 19:00:00 28.5 8 Sudoeste 21 Noroeste 0 -- -- 33
2020-10-07 18:00:00 29.8 9 Noroeste 27 Noroeste 0 -- -- 27
2020-10-07 17:00:00 29.3 13 Noroeste 28 Oeste 0 -- -- 29
2020-10-07 16:00:00 29.4 14 Oeste 26 Sudoeste 0 -- -- 31
2020-10-07 15:00:00 28.3 13 Sudoeste 25 Sudoeste 0 -- -- 32
2020-10-07 14:00:00 27.5 13 Oeste 26 Oeste 0 -- -- 33
2020-10-07 13:00:00 25.7 8 Oeste 18 Oeste 0 -- -- 36
2020-10-07 12:00:00 24.1 10 Oeste 20 Oeste 0 -- -- 40
2020-10-07 11:00:00 21.3 7 Oeste 16 Oeste 0 -- -- 49
2020-10-07 10:00:00 19.1 10 Noroeste 28 Oeste 0 -- -- 56
2020-10-07 09:00:00 16.7 15 Noroeste 35 Noroeste 0 -- -- 64
2020-10-07 08:00:00 15.8 17 Oeste 27 Oeste 0 -- -- 67
2020-10-07 07:00:00 14.9 12 Oeste 19 Oeste 0 -- -- 71
2020-10-07 06:00:00 14.8 4 Oeste 12 Noroeste 0 -- -- 70
2020-10-07 05:00:00 14 5 Norte 10 Noroeste 0 -- -- 73
2020-10-07 04:00:00 14.1 2 Noroeste 5 Nordeste 0 -- -- 71
2020-10-07 03:00:00 15.2 4 Norte 17 Noroeste 0 -- -- 67
2020-10-07 02:00:00 17.6 10 Noroeste 18 Noroeste 0 -- -- 61
2020-10-07 01:00:00 16 2 Sudoeste 10 Norte 0 -- -- 65
2020-10-07 00:00:00 16.7 4 Nordeste 9 Norte 0 -- -- 62
2020-10-06 23:00:00 17.5 0 Calma 9 Nordeste 0 -- -- 59
2020-10-06 22:00:00 19 6 Nordeste 10 Nordeste 0 -- -- 54
2020-10-06 21:00:00 20.4 3 Norte 8 Nordeste 0 -- -- 51
2020-10-06 20:00:00 22.3 5 Sudeste 20 Sudeste 0 -- -- 47
2020-10-06 19:00:00 26.1 9 Sur 23 Sudeste 0 -- -- 38
2020-10-06 18:00:00 27.7 12 Sudeste 22 Este 0 -- -- 34
2020-10-06 17:00:00 29.4 7 Oeste 25 Oeste 0 -- -- 32
2020-10-06 16:00:00 28.6 13 Oeste 30 Noroeste 0 -- -- 33
2020-10-06 15:00:00 28 9 Oeste 25 Oeste 0 -- -- 34
2020-10-06 14:00:00 26.5 13 Oeste 28 Oeste 0 -- -- 37
2020-10-06 13:00:00 24.8 14 Oeste 32 Oeste 0 -- -- 40
2020-10-06 12:00:00 23.2 11 Oeste 23 Oeste 0 -- -- 41
2020-10-06 11:00:00 19.5 13 Noroeste 23 Noroeste 0 -- -- 43
2020-10-06 10:00:00 14.9 9 Noroeste 26 Noroeste 0 -- -- 50
2020-10-06 09:00:00 12 14 Noroeste 22 Noroeste 0 -- -- 55
2020-10-06 08:00:00 12.1 12 Noroeste 24 Noroeste 0 -- -- 54
2020-10-06 07:00:00 11.1 9 Noroeste 20 Noroeste 0 -- -- 57
2020-10-06 06:00:00 9.9 3 Oeste 15 Norte 0 -- -- 62
2020-10-06 05:00:00 9.1 3 Norte 6 Norte 0 -- -- 68
2020-10-06 04:00:00 9.8 4 Noroeste 10 Noroeste 0 -- -- 65
2020-10-06 03:00:00 9.5 0 Calma 5 Sudoeste 0 -- -- 69
2020-10-06 02:00:00 9.8 4 Noroeste 8 Sudoeste 0 -- -- 69
2020-10-06 01:00:00 10.4 3 Norte 9 Nordeste 0 -- -- 67
2020-10-06 00:00:00 11.1 6 Nordeste 10 Nordeste 0 -- -- 64
2020-10-05 23:00:00 12.1 6 Nordeste 10 Nordeste 0 -- -- 61
2020-10-05 22:00:00 13.5 3 Norte 10 Nordeste 0 -- -- 57
2020-10-05 21:00:00 15 7 Nordeste 12 Nordeste 0 -- -- 53
2020-10-05 20:00:00 17.3 11 Sudeste 25 Este 0 -- -- 46
2020-10-05 19:00:00 22.6 2 Noroeste 19 Oeste 0 -- -- 29
2020-10-05 18:00:00 22.3 9 Noroeste 25 Noroeste 0 -- -- 29
2020-10-05 17:00:00 22 8 Noroeste 32 Noroeste 0 -- -- 28
2020-10-05 16:00:00 21.8 13 Noroeste 28 Noroeste 0 -- -- 27
2020-10-05 15:00:00 21.5 10 Noroeste 27 Noroeste 0 -- -- 29
2020-10-05 14:00:00 20.5 14 Noroeste 37 Noroeste 0 -- -- 30
2020-10-05 13:00:00 19.6 15 Noroeste 34 Noroeste 0 -- -- 33
2020-10-05 12:00:00 17.5 20 Noroeste 36 Noroeste 0 -- -- 38
2020-10-05 11:00:00 16.7 11 Noroeste 23 Oeste 0 -- -- 45
2020-10-05 10:00:00 13.4 3 Oeste 11 Oeste 0 -- -- 59
2020-10-05 09:00:00 9.1 3 Oeste 7 Oeste 0 -- -- 75
2020-10-05 08:00:00 8.2 0 Calma 9 Oeste 0 -- -- 77
2020-10-05 07:00:00 8.2 0 Calma 6 Nordeste 0 -- -- 77
2020-10-05 06:00:00 9 3 Noroeste 10 Nordeste 0 -- -- 75
2020-10-05 05:00:00 9.4 2 Nordeste 8 Nordeste 0 -- -- 73
2020-10-05 04:00:00 10.5 2 Oeste 6 Noroeste 0 -- -- 70
2020-10-05 03:00:00 11.5 2 Noroeste 13 Oeste 0 -- -- 66
2020-10-05 02:00:00 14.3 9 Noroeste 22 Noroeste 0 -- -- 57
2020-10-05 01:00:00 14.6 11 Noroeste 16 Noroeste 0 -- -- 56
2020-10-05 00:00:00 15.3 6 Norte 17 Noroeste 0 -- -- 50
2020-10-04 23:00:00 15.9 12 Noroeste 38 Noroeste 0 -- -- 47
2020-10-04 22:00:00 16.6 23 Noroeste 44 Noroeste 0 -- -- 44
2020-10-04 21:00:00 16.8 18 Noroeste 40 Noroeste 0 -- -- 44
2020-10-04 20:00:00 17.5 19 Noroeste 41 Noroeste 0 -- -- 42
2020-10-04 19:00:00 19 14 Oeste 49 Oeste 0 -- -- 38
2020-10-04 18:00:00 19.6 19 Oeste 49 Noroeste 0 -- -- 40
2020-10-04 17:00:00 18.6 31 Noroeste 60 Noroeste 0 -- -- 42
2020-10-04 16:00:00 17.3 32 Noroeste 62 Noroeste 0 -- -- 48
2020-10-04 15:00:00 18.9 21 Oeste 45 Oeste 0 -- -- 44
2020-10-04 14:00:00 19.4 21 Oeste 42 Oeste 0 -- -- 43
2020-10-04 13:00:00 18.4 18 Noroeste 32 Noroeste 0 -- -- 43
2020-10-04 12:00:00 16.7 13 Noroeste 37 Noroeste 0 -- -- 47
2020-10-04 11:00:00 15 17 Noroeste 32 Noroeste 0 -- -- 49
2020-10-04 10:00:00 12.7 18 Noroeste 31 Noroeste 0 -- -- 56
2020-10-04 09:00:00 10.4 14 Noroeste 25 Noroeste 0 -- -- 61
2020-10-04 08:00:00 9 10 Noroeste 19 Noroeste 0 -- -- 66
2020-10-04 07:00:00 8.8 6 Noroeste 24 Noroeste 0 -- -- 65
2020-10-04 06:00:00 9.8 11 Noroeste 19 Noroeste 0 -- -- 61
2020-10-04 05:00:00 9.6 12 Noroeste 21 Noroeste 0 -- -- 61
2020-10-04 04:00:00 9.7 5 Noroeste 13 Noroeste 0 -- -- 59
2020-10-04 03:00:00 10.3 8 Noroeste 15 Noroeste 0 -- -- 57
2020-10-04 02:00:00 11.1 10 Noroeste 17 Noroeste 0 -- -- 54
2020-10-04 01:00:00 11.4 8 Noroeste 14 Noroeste 0 -- -- 53
2020-10-04 00:00:00 10.6 4 Norte 7 Norte 0 -- -- 58
2020-10-03 23:00:00 12.6 2 Oeste 15 Noroeste 0 -- -- 52
2020-10-03 22:00:00 12 2 Noroeste 5 Noroeste 0 -- -- 56
2020-10-03 21:00:00 14.2 2 Oeste 22 Oeste 0 -- -- 47
2020-10-03 20:00:00 16.1 12 Noroeste 31 Noroeste 0 -- -- 41
2020-10-03 19:00:00 18.5 12 Oeste 37 Noroeste 0 -- -- 36
2020-10-03 18:00:00 19.4 18 Noroeste 37 Oeste 0 -- -- 35
2020-10-03 17:00:00 19.7 23 Oeste 41 Oeste 0 -- -- 34
2020-10-03 16:00:00 20.2 15 Oeste 46 Sudoeste 0 -- -- 35
2020-10-03 15:00:00 19 23 Oeste 43 Sudoeste 0 -- -- 36
2020-10-03 14:00:00 18.2 19 Oeste 37 Noroeste 0 -- -- 38
2020-10-03 13:00:00 17.1 19 Noroeste 37 Oeste 0 -- -- 39
2020-10-03 12:00:00 15.1 18 Noroeste 37 Oeste 0 -- -- 45
2020-10-03 11:00:00 13.6 20 Noroeste 40 Oeste 0 -- -- 49
2020-10-03 10:00:00 11.7 18 Noroeste 32 Noroeste 0 -- -- 55
2020-10-03 09:00:00 9.7 16 Noroeste 30 Noroeste 0 -- -- 60
2020-10-03 08:00:00 8.9 18 Noroeste 36 Oeste 0 -- -- 64
2020-10-03 07:00:00 9.5 19 Noroeste 35 Noroeste 0 -- -- 62
2020-10-03 06:00:00 9.7 24 Noroeste 35 Noroeste 0 -- -- 59
2020-10-03 05:00:00 9.8 19 Noroeste 35 Noroeste 0 -- -- 60
2020-10-03 04:00:00 10.2 14 Noroeste 27 Noroeste 0 -- -- 57
2020-10-03 03:00:00 10.2 14 Noroeste 39 Noroeste 0 -- -- 57
2020-10-03 02:00:00 10.6 24 Noroeste 42 Noroeste 0 -- -- 56
2020-10-03 01:00:00 10.5 18 Noroeste 36 Noroeste 0 -- -- 57
2020-10-03 00:00:00 10.5 12 Noroeste 27 Noroeste 0 -- -- 58
2020-10-02 23:00:00 11.5 21 Noroeste 36 Noroeste 0 -- -- 53
2020-10-02 22:00:00 10.7 16 Noroeste 27 Noroeste 0 -- -- 62
2020-10-02 21:00:00 10.7 13 Noroeste 24 Noroeste 0 -- -- 72
2020-10-02 20:00:00 11.3 11 Noroeste 28 Noroeste 0 -- -- 73
2020-10-02 19:00:00 11.9 14 Noroeste 28 Noroeste 0 -- -- 67
2020-10-02 18:00:00 11.5 12 Oeste 23 Noroeste 0 -- -- 67
2020-10-02 17:00:00 10.4 10 Oeste 51 Noroeste 0.2 -- -- 77
2020-10-02 16:00:00 10.5 24 Noroeste 49 Noroeste 0.4 -- -- 76
2020-10-02 15:00:00 14.5 21 Noroeste 46 Noroeste 2.2 -- -- 78
2020-10-02 14:00:00 18 29 Oeste 74 Oeste 0 -- -- 72
2020-10-02 13:00:00 18.9 27 Oeste 57 Oeste 0 -- -- 62
2020-10-02 12:00:00 16.7 23 Oeste 42 Oeste 0 -- -- 71
2020-10-02 11:00:00 13.8 13 Oeste 44 Oeste 0 -- -- 83
2020-10-02 10:00:00 15.3 18 Oeste 44 Sudoeste 0 -- -- 69
2020-10-02 09:00:00 15.4 14 Oeste 39 Oeste 0 -- -- 65
2020-10-02 08:00:00 15.7 13 Noroeste 39 Noroeste 0 -- -- 64
2020-10-02 07:00:00 15.9 20 Noroeste 42 Noroeste 0 -- -- 65
2020-10-02 06:00:00 16.5 22 Noroeste 52 Noroeste 0 -- -- 62
2020-10-02 05:00:00 17.1 23 Noroeste 49 Oeste 0 -- -- 60
2020-10-02 04:00:00 18.1 26 Noroeste 49 Oeste 0 -- -- 56
2020-10-02 03:00:00 18.6 24 Noroeste 46 Noroeste 0 -- -- 53
2020-10-02 02:00:00 19 22 Noroeste 38 Noroeste 0 -- -- 52
2020-10-02 01:00:00 19.4 10 Noroeste 23 Noroeste 0 -- -- 51
2020-10-02 00:00:00 20.2 5 Oeste 22 Noroeste 0 -- -- 47
2020-10-01 23:00:00 20.3 10 Noroeste 26 Noroeste 0 -- -- 43
2020-10-01 22:00:00 21.5 11 Noroeste 23 Noroeste 0 -- -- 40
2020-10-01 21:00:00 22.3 9 Noroeste 26 Noroeste 0 -- -- 38
2020-10-01 20:00:00 23.7 14 Noroeste 28 Noroeste 0 -- -- 36
2020-10-01 19:00:00 24.9 14 Noroeste 32 Oeste 0 -- -- 32
2020-10-01 18:00:00 26.4 15 Oeste 33 Oeste 0 -- -- 30
2020-10-01 17:00:00 28.2 17 Oeste 37 Sudoeste 0 -- -- 24
2020-10-01 16:00:00 28.7 20 Oeste 42 Oeste 0 -- -- 21
2020-10-01 15:00:00 28.9 15 Oeste 35 Oeste 0 -- -- 25
2020-10-01 14:00:00 27.5 19 Oeste 30 Oeste 0 -- -- 28
2020-10-01 13:00:00 26.5 18 Oeste 35 Oeste 0 -- -- 31
2020-10-01 12:00:00 25 16 Noroeste 36 Noroeste 0 -- -- 33
2020-10-01 11:00:00 22.6 12 Oeste 25 Oeste 0 -- -- 38
2020-10-01 10:00:00 19 14 Noroeste 26 Noroeste 0 -- -- 44
2020-10-01 09:00:00 15.5 7 Oeste 20 Noroeste 0 -- -- 53
2020-10-01 08:00:00 14.8 9 Noroeste 21 Noroeste 0 -- -- 55
2020-10-01 07:00:00 15.8 11 Noroeste 22 Noroeste 0 -- -- 52
2020-10-01 06:00:00 15.5 9 Noroeste 23 Noroeste 0 -- -- 55
2020-10-01 05:00:00 14.1 6 Oeste 13 Oeste 0 -- -- 69
2020-10-01 04:00:00 13.9 4 Norte 15 Noroeste 0 -- -- 75
2020-10-01 03:00:00 14.2 2 Norte 9 Noroeste 0 -- -- 82
2020-10-01 02:00:00 15.5 3 Este 23 Noroeste 0 -- -- 84
2020-10-01 01:00:00 15.3 0 Calma 10 Oeste 0 -- -- 87
2020-10-01 00:00:00 16.3 4 Norte 10 Noroeste 0 -- -- 86